Cols Grove, Ohio
Current Conditions -  °F | °C
As of 6:21 AM on Sunday 21 Dec 2014 (Local Time) from KAOH Reporting Station
Haze Haze  
Wind Chill: 26°   Ceiling: Unl
Heat Index: 26°   Visibility: 1.5mi
Dew Point: 22°   Wind: 0mph
Humidity: 84%   Direction: NA
Pressure: 30.29"   Gusts: NA
Location:  40.9068°N, 84.0923°W
Report Text: KAOH 211121Z AUTO 00000KT 1 1/2SM BR CLR M03/M06 A3029 RMK AO2 I1000 T10331056
Loading
Personal Weather Stations






























Interactive Weather Map New forecast layout! Learn more

10-Day Weather Forecast

Advertisements
Track Severe Weather on mobile